Time;durP1;ratioP1;P1;durP2;ratioP2;P2;SDS_P1;SDS_P2;PMS_P1;PMS_P2;Temp;Humidity;BMP_temperature;BMP_pressure;BME280_temperature;BME280_humidity;BME280_pressure;Samples;Min_cycle;Max_cycle;Signal;HPM_P1;HPM_P2
2022/09/07 00:00:51;;;;;;;2.63;1.30;;;;;;;24.42;43.69;101181.19;16137770;19;129436;-59
2022/09/07 00:06:13;;;;;;;2.40;1.23;;;;;;;24.41;43.74;101162.75;16130536;19;130398;-59
2022/09/07 00:11:34;;;;;;;1.60;0.90;;;;;;;24.41;43.34;101161.88;16134510;19;129952;-59
2022/09/07 00:16:56;;;;;;;2.30;1.40;;;;;;;24.41;43.62;101181.47;16135533;19;129648;-60
2022/09/07 00:22:18;;;;;;;2.60;1.13;;;;;;;24.39;43.64;101178.94;16132507;19;129795;-59
2022/09/07 00:27:40;;;;;;;2.40;1.17;;;;;;;24.40;43.99;101190.97;16134495;19;130717;-59
2022/09/07 00:33:01;;;;;;;2.03;1.20;;;;;;;24.39;43.93;101178.94;16131390;19;130919;-59
2022/09/07 00:38:23;;;;;;;1.73;1.17;;;;;;;24.39;43.86;101180.88;16135722;19;129482;-59
2022/09/07 00:43:52;;;;;;;1.63;1.08;;;;;;;24.39;43.69;101194.88;16131433;19;129374;-67
2022/09/07 00:49:18;;;;;;;2.28;1.00;;;;;;;24.39;43.62;101189.28;16134148;19;130008;-67
2022/09/07 00:54:44;;;;;;;2.28;1.00;;;;;;;24.37;43.57;101197.13;16141540;19;129569;-68
2022/09/07 01:00:07;;;;;;;2.17;1.00;;;;;;;24.36;43.27;101190.69;16145577;19;129357;-69
2022/09/07 01:05:39;;;;;;;2.13;0.98;;;;;;;24.37;43.54;101180.34;16147552;19;129012;-67
2022/09/07 01:11:01;;;;;;;1.80;1.02;;;;;;;24.37;43.47;101180.34;16146189;19;129538;-61
2022/09/07 01:16:54;;;;;;;2.85;1.10;;;;;;;24.37;43.85;101188.75;16146855;19;131731;-64
2022/09/07 01:22:24;;;;;;;2.70;1.20;;;;;;;24.34;43.49;101186.50;16147405;19;129389;-68
2022/09/07 01:28:13;;;;;;;2.33;0.90;;;;;;;24.34;43.71;101190.13;16147965;19;129332;-70
2022/09/07 01:33:58;;;;;;;1.95;1.10;;;;;;;24.35;43.59;101193.78;16141806;19;129300;-60
2022/09/07 01:39:26;;;;;;;1.27;0.80;;;;;;;24.32;43.32;101200.75;16144946;19;129316;-59
2022/09/07 01:45:01;;;;;;;1.33;0.93;;;;;;;24.33;43.45;101198.81;16142029;19;129622;-59
2022/09/07 01:50:27;;;;;;;1.63;0.70;;;;;;;24.32;43.63;101200.75;16145252;19;131133;-59
2022/09/07 01:55:54;;;;;;;1.50;0.90;;;;;;;24.32;43.60;101195.16;16142663;19;129051;-60
2022/09/07 02:01:28;;;;;;;1.35;0.85;;;;;;;24.32;43.52;101197.13;16143731;19;129854;-59
2022/09/07 02:06:59;;;;;;;1.38;0.90;;;;;;;24.30;43.47;101189.03;16143171;19;129203;-59
2022/09/07 02:12:30;;;;;;;2.67;1.08;;;;;;;24.30;43.59;101182.56;16144213;19;129882;-59
2022/09/07 02:17:58;;;;;;;1.63;0.80;;;;;;;24.29;43.25;101190.13;16144740;19;129019;-59
2022/09/07 02:23:24;;;;;;;1.88;0.70;;;;;;;24.29;43.62;101197.66;16143046;19;129491;-59
2022/09/07 02:28:47;;;;;;;1.65;0.73;;;;;;;24.28;43.86;101216.41;16142621;19;129572;-59
2022/09/07 02:34:09;;;;;;;0.80;0.70;;;;;;;24.28;43.62;101188.47;16137210;19;130205;-59
2022/09/07 02:39:31;;;;;;;1.50;0.82;;;;;;;24.27;43.61;101182.00;16140235;19;130099;-59
2022/09/07 02:44:53;;;;;;;1.05;0.70;;;;;;;24.27;43.49;101193.19;16139633;19;129574;-59
2022/09/07 02:50:37;;;;;;;1.65;1.00;;;;;;;24.27;43.40;101170.81;16140504;19;130926;-59
2022/09/07 02:56:21;;;;;;;1.27;0.85;;;;;;;24.27;43.42;101162.44;16139833;19;130172;-59
2022/09/07 03:02:09;;;;;;;1.30;0.90;;;;;;;24.26;43.58;101176.72;16139719;19;129000;-59
2022/09/07 03:07:37;;;;;;;1.77;0.95;;;;;;;24.23;43.59;101175.28;16135479;19;129665;-59
2022/09/07 03:13:05;;;;;;;1.15;0.80;;;;;;;24.24;43.49;101196.56;16137972;19;129308;-59
2022/09/07 03:18:27;;;;;;;1.02;0.80;;;;;;;24.23;43.48;101194.84;16140345;19;128848;-60
2022/09/07 03:23:48;;;;;;;1.73;1.00;;;;;;;24.22;43.36;101173.59;16141377;19;130383;-59
2022/09/07 03:29:12;;;;;;;1.00;0.80;;;;;;;24.22;43.36;101167.16;16140838;19;129571;-59
2022/09/07 03:34:35;;;;;;;1.55;0.80;;;;;;;24.21;43.29;101166.34;16136320;19;130253;-59
2022/09/07 03:39:56;;;;;;;1.73;1.00;;;;;;;24.22;42.99;101162.44;16139309;19;129666;-59
2022/09/07 03:45:18;;;;;;;1.05;0.70;;;;;;;24.21;43.44;101166.34;16135810;19;129107;-59
2022/09/07 03:50:40;;;;;;;1.42;0.90;;;;;;;24.21;42.96;101157.94;16135016;19;129592;-59
2022/09/07 03:56:08;;;;;;;2.75;0.85;;;;;;;24.20;43.51;101156.28;16132070;19;129596;-59
2022/09/07 04:01:30;;;;;;;0.95;0.85;;;;;;;24.19;43.34;101148.16;16137745;19;129600;-59
2022/09/07 04:06:52;;;;;;;1.38;0.75;;;;;;;24.19;43.28;101154.59;16135061;19;129546;-59
2022/09/07 04:12:14;;;;;;;1.45;0.80;;;;;;;24.18;43.28;101150.13;16135136;19;129996;-59
2022/09/07 04:17:35;;;;;;;1.13;1.02;;;;;;;24.17;43.28;101159.63;16131894;19;130591;-59
2022/09/07 04:22:57;;;;;;;3.08;0.88;;;;;;;24.17;43.07;101159.63;16134798;19;129843;-59
2022/09/07 04:28:20;;;;;;;1.83;1.00;;;;;;;24.17;43.22;101142.03;16146440;19;129617;-59
2022/09/07 04:33:43;;;;;;;2.00;0.98;;;;;;;24.16;42.98;101132.78;16149341;19;129368;-59
2022/09/07 04:39:05;;;;;;;1.52;0.90;;;;;;;24.18;43.11;101138.09;16150684;19;130892;-59
2022/09/07 04:44:26;;;;;;;2.55;0.98;;;;;;;24.17;42.96;101148.44;16146576;19;130957;-59
2022/09/07 04:49:51;;;;;;;1.80;0.82;;;;;;;24.16;42.78;101140.34;16149960;19;129243;-59
2022/09/07 04:55:13;;;;;;;1.20;0.80;;;;;;;24.15;42.72;101139.47;16144639;19;129313;-59
2022/09/07 05:00:36;;;;;;;1.83;0.98;;;;;;;24.14;43.16;101160.16;16150388;19;129750;-59
2022/09/07 05:06:06;;;;;;;1.52;0.90;;;;;;;24.14;42.99;101154.56;16149681;19;129654;-59
2022/09/07 05:11:28;;;;;;;1.17;0.80;;;;;;;24.14;42.95;101150.97;16148479;19;129832;-59
2022/09/07 05:16:50;;;;;;;2.50;0.95;;;;;;;24.13;43.22;101158.47;16147069;19;130097;-59
2022/09/07 05:22:12;;;;;;;1.30;0.80;;;;;;;24.13;43.01;101166.88;16147460;19;129827;-59
2022/09/07 05:27:34;;;;;;;1.65;1.00;;;;;;;24.14;43.08;101164.94;16147505;19;130024;-58
2022/09/07 05:32:55;;;;;;;1.38;1.00;;;;;;;24.13;42.75;101169.66;16145476;19;129236;-59
2022/09/07 05:38:17;;;;;;;1.33;1.00;;;;;;;24.12;42.88;101177.22;16143274;19;131431;-59
2022/09/07 05:43:40;;;;;;;1.45;0.80;;;;;;;24.12;42.97;101170.81;16140371;19;130666;-60
2022/09/07 05:49:22;;;;;;;1.63;1.13;;;;;;;24.11;42.77;101177.53;16145479;19;129024;-59
2022/09/07 05:54:44;;;;;;;2.15;1.15;;;;;;;24.11;43.08;101180.31;16142201;19;130351;-58
2022/09/07 06:00:06;;;;;;;5.03;1.20;;;;;;;24.12;43.01;101179.19;16146650;19;129240;-58
2022/09/07 06:05:28;;;;;;;5.45;1.20;;;;;;;24.10;42.97;101178.63;16144098;19;129109;-58
2022/09/07 06:10:49;;;;;;;2.40;1.20;;;;;;;24.09;42.78;101183.38;16145143;19;128900;-58
2022/09/07 06:16:13;;;;;;;1.55;1.10;;;;;;;24.08;43.22;101184.47;16140708;19;129273;-58
2022/09/07 06:21:36;;;;;;;3.15;1.33;;;;;;;24.09;43.22;101180.56;16145360;19;129454;-58
2022/09/07 06:26:58;;;;;;;2.95;1.10;;;;;;;24.08;43.04;101178.06;16144141;19;129422;-58
2022/09/07 06:32:20;;;;;;;3.50;1.20;;;;;;;24.09;43.27;101179.75;16142790;19;129218;-60
2022/09/07 06:38:02;;;;;;;4.20;1.40;;;;;;;24.17;42.72;101176.38;16140489;19;130502;-60
2022/09/07 06:43:24;;;;;;;4.93;1.33;;;;;;;24.27;42.53;101195.16;16139456;19;129980;-60
2022/09/07 06:48:46;;;;;;;2.88;1.33;;;;;;;24.35;42.61;101190.97;16142030;19;129515;-60
2022/09/07 06:54:08;;;;;;;3.45;1.30;;;;;;;24.42;42.17;101199.91;16137852;19;129281;-60
2022/09/07 06:59:50;;;;;;;2.95;1.45;;;;;;;24.49;42.21;101205.22;16142816;19;129730;-60
2022/09/07 07:05:12;;;;;;;2.80;1.30;;;;;;;24.55;41.91;101204.94;16139752;19;130694;-60
2022/09/07 07:10:37;;;;;;;5.15;1.98;;;;;;;24.62;42.02;101198.22;16144224;19;131516;-60
2022/09/07 07:16:08;;;;;;;7.60;1.75;;;;;;;24.69;41.76;101204.38;16137744;19;131273;-60
2022/09/07 07:21:30;;;;;;;3.58;1.45;;;;;;;24.72;42.09;101206.63;16140542;19;129858;-60
2022/09/07 07:27:12;;;;;;;3.75;1.63;;;;;;;24.76;41.96;101209.69;16140551;19;129442;-61
2022/09/07 07:32:36;;;;;;;3.55;2.03;;;;;;;24.80;41.92;101222.84;16136116;19;130376;-61
2022/09/07 07:37:58;;;;;;;2.70;1.50;;;;;;;24.80;41.79;101227.59;16138999;19;131626;-61
2022/09/07 07:43:40;;;;;;;5.20;1.50;;;;;;;24.81;41.78;101227.31;16137726;19;129278;-61
2022/09/07 07:49:01;;;;;;;7.18;1.55;;;;;;;24.83;41.92;101233.47;16141407;19;129311;-60
2022/09/07 07:54:23;;;;;;;4.38;1.60;;;;;;;24.83;42.18;101227.88;16135679;19;129722;-60
2022/09/07 07:59:45;;;;;;;3.20;1.50;;;;;;;24.85;41.61;101225.63;16136177;19;128943;-61
2022/09/07 08:05:07;;;;;;;2.65;1.63;;;;;;;24.88;41.58;101225.09;16136707;19;129091;-61
2022/09/07 08:10:28;;;;;;;2.50;1.30;;;;;;;24.91;41.89;101237.69;16132992;19;129929;-60
2022/09/07 08:15:50;;;;;;;3.47;1.50;;;;;;;24.91;41.96;101239.63;16131539;19;129573;-60
2022/09/07 08:21:14;;;;;;;6.47;1.67;;;;;;;24.94;42.10;101233.47;16138072;19;129157;-60
2022/09/07 08:26:36;;;;;;;5.25;1.60;;;;;;;24.93;41.96;101235.44;16134720;19;129945;-60
2022/09/07 08:31:57;;;;;;;6.90;2.00;;;;;;;24.92;41.89;101235.72;16133547;19;130119;-61
2022/09/07 08:37:19;;;;;;;7.68;2.00;;;;;;;24.88;42.16;101236.28;16126589;19;129469;-61
2022/09/07 08:43:00;;;;;;;4.82;1.98;;;;;;;24.90;42.13;101224.81;16135217;19;130256;-67
2022/09/07 08:48:30;;;;;;;7.15;2.10;;;;;;;24.90;42.22;101227.63;16135325;19;129433;-62
2022/09/07 08:53:52;;;;;;;10.77;2.53;;;;;;;24.91;42.14;101228.44;16135273;19;129602;-61
2022/09/07 08:59:21;;;;;;;9.13;2.80;;;;;;;24.93;41.70;101227.03;16135545;19;129563;-59
2022/09/07 09:04:43;;;;;;;13.88;2.85;;;;;;;24.95;41.59;101221.16;16133484;19;129354;-61
2022/09/07 09:10:28;;;;;;;8.43;2.35;;;;;;;24.98;41.57;101217.81;16132044;19;128956;-68
2022/09/07 09:16:03;;;;;;;13.82;2.70;;;;;;;24.99;42.11;101216.66;16143748;19;129375;-60
2022/09/07 09:21:25;;;;;;;11.07;2.83;;;;;;;24.96;41.95;101220.06;16149583;19;128857;-61
2022/09/07 09:26:55;;;;;;;11.50;2.35;;;;;;;24.97;41.68;101227.31;16145549;19;130119;-61
2022/09/07 09:32:38;;;;;;;7.47;2.08;;;;;;;24.94;41.33;101231.50;16147172;19;130117;-60
2022/09/07 09:38:02;;;;;;;9.50;2.20;;;;;;;24.93;41.06;101229.81;16148229;19;129128;-68
2022/09/07 09:43:30;;;;;;;16.48;2.97;;;;;;;24.94;41.27;101233.47;16145328;19;129413;-58
2022/09/07 09:49:04;;;;;;;9.43;2.25;;;;;;;24.95;41.25;101223.97;16146511;19;128964;-55
2022/09/07 09:54:36;;;;;;;13.93;2.35;;;;;;;24.96;40.78;101231.25;16144319;19;129246;-61
2022/09/07 10:00:01;;;;;;;8.45;2.10;;;;;;;24.97;40.85;101230.13;16143754;19;129585;-60
2022/09/07 10:05:34;;;;;;;6.50;2.08;;;;;;;24.97;40.57;101216.13;16141966;19;129180;-55
2022/09/07 10:11:08;;;;;;;8.70;1.95;;;;;;;24.98;40.85;101223.41;16146408;19;129368;-56
2022/09/07 10:16:41;;;;;;;8.13;1.73;;;;;;;25.02;40.89;101227.31;16140146;19;129599;-61
2022/09/07 10:22:21;;;;;;;5.97;1.77;;;;;;;25.03;40.86;101223.38;16145517;19;129149;-59
2022/09/07 10:27:45;;;;;;;5.28;1.60;;;;;;;25.01;40.88;101212.47;16143092;19;132097;-61
2022/09/07 10:33:20;;;;;;;6.68;1.65;;;;;;;25.02;40.74;101208.56;16143701;19;129412;-55
2022/09/07 10:38:52;;;;;;;7.73;1.90;;;;;;;25.01;40.86;101201.28;16143556;19;129614;-60
2022/09/07 10:44:27;;;;;;;10.90;2.17;;;;;;;25.04;40.96;101202.66;16140314;19;128989;-60
2022/09/07 10:49:55;;;;;;;5.63;1.47;;;;;;;25.02;40.44;101185.31;16143140;19;129491;-60
2022/09/07 10:55:46;;;;;;;4.32;1.55;;;;;;;25.05;40.99;101189.53;16137945;19;129476;-60
2022/09/07 11:01:26;;;;;;;5.03;1.40;;;;;;;25.03;40.85;101192.59;16142822;19;129970;-59
2022/09/07 11:06:54;;;;;;;6.35;1.70;;;;;;;25.03;40.83;101178.59;16141510;19;129591;-59
2022/09/07 11:12:20;;;;;;;6.78;1.40;;;;;;;25.00;40.91;101177.22;16142239;19;129046;-60
2022/09/07 11:17:56;;;;;;;5.72;2.05;;;;;;;24.99;40.50;101174.69;16134913;19;129942;-61
2022/09/07 11:23:27;;;;;;;8.85;2.10;;;;;;;24.96;40.62;101169.66;16139299;19;129297;-60
2022/09/07 11:29:03;;;;;;;4.45;1.42;;;;;;;24.93;40.74;101165.47;16140882;19;131921;-60
2022/09/07 11:34:56;;;;;;;6.73;1.60;;;;;;;24.92;40.20;101174.16;16134859;19;129243;-60
2022/09/07 11:40:38;;;;;;;7.53;1.75;;;;;;;24.93;39.96;101159.03;16138489;19;129885;-59
2022/09/07 11:46:06;;;;;;;6.47;1.70;;;;;;;24.90;39.92;101157.66;16133879;19;129328;-59
2022/09/07 11:51:39;;;;;;;5.60;1.38;;;;;;;24.87;39.83;101156.22;16138284;19;128987;-59
2022/09/07 11:57:20;;;;;;;6.82;1.42;;;;;;;24.87;39.62;101150.63;16132478;19;131802;-58
2022/09/07 12:03:03;;;;;;;3.80;1.33;;;;;;;24.88;39.34;101134.69;16137672;19;131294;-59
2022/09/07 12:08:33;;;;;;;3.90;1.17;;;;;;;24.87;39.78;101128.22;16133094;19;129389;-59
2022/09/07 12:14:07;;;;;;;7.20;1.77;;;;;;;24.90;39.66;101131.63;16135489;19;129046;-59
2022/09/07 12:19:29;;;;;;;5.82;1.33;;;;;;;24.88;39.62;101135.53;16137797;19;129499;-59
2022/09/07 12:24:52;;;;;;;5.53;1.40;;;;;;;24.90;39.69;101123.22;16135635;19;128921;-59
2022/09/07 12:30:14;;;;;;;3.65;1.20;;;;;;;24.90;39.58;101128.81;16130287;19;130136;-59
2022/09/07 12:35:39;;;;;;;4.10;1.20;;;;;;;24.91;39.80;101122.09;16125095;19;129577;-59
2022/09/07 12:41:03;;;;;;;3.28;0.93;;;;;;;24.90;39.47;101106.44;16130837;19;129708;-59
2022/09/07 12:46:31;;;;;;;4.20;1.15;;;;;;;24.90;39.81;101112.03;16133164;19;129683;-61
2022/09/07 12:52:26;;;;;;;5.40;1.05;;;;;;;24.92;39.59;101109.78;16197010;19;129417;-58
2022/09/07 12:58:28;;;;;;;10.00;1.30;;;;;;;24.95;39.48;101120.41;16222411;19;130565;-60
2022/09/07 13:03:59;;;;;;;11.60;1.30;;;;;;;24.98;39.27;101111.47;16223473;19;129146;-61
2022/09/07 13:09:29;;;;;;;9.85;1.45;;;;;;;25.02;38.83;101099.41;16223319;19;129007;-56
2022/09/07 13:14:54;;;;;;;5.78;1.25;;;;;;;25.07;38.86;101098.53;16223928;19;128766;-57
2022/09/07 13:20:22;;;;;;;6.18;1.48;;;;;;;25.09;38.08;101107.50;16217475;19;130392;-60
2022/09/07 13:25:47;;;;;;;8.18;1.40;;;;;;;25.12;37.99;101086.47;16168104;19;128859;-59
2022/09/07 13:31:46;;;;;;;7.40;1.60;;;;;;;25.13;37.44;101080.56;16161330;19;129646;-61
2022/09/07 13:37:44;;;;;;;9.77;1.30;;;;;;;25.12;37.40;101078.06;16152854;19;129459;-59
2022/09/07 13:43:15;;;;;;;5.32;1.08;;;;;;;25.13;37.25;101063.78;16156790;19;129259;-58
2022/09/07 13:48:49;;;;;;;2.72;0.80;;;;;;;25.14;36.81;101051.47;16151945;19;128872;-59
2022/09/07 13:54:35;;;;;;;11.65;1.80;;;;;;;25.14;36.79;101057.06;16146262;19;128775;-58
2022/09/07 13:59:58;;;;;;;4.82;0.98;;;;;;;25.14;37.08;101057.06;16140822;19;129655;-57
2022/09/07 14:05:21;;;;;;;6.65;1.25;;;;;;;25.14;36.88;101043.06;16141338;19;129546;-58
2022/09/07 14:10:47;;;;;;;4.72;1.08;;;;;;;25.15;37.25;101047.53;16136526;19;130291;-59
2022/09/07 14:16:09;;;;;;;9.77;1.17;;;;;;;25.15;37.63;101053.13;16142157;19;129535;-59
2022/09/07 14:21:31;;;;;;;5.88;1.17;;;;;;;25.16;37.20;101046.41;16143118;19;129702;-59
2022/09/07 14:26:53;;;;;;;4.45;1.00;;;;;;;25.15;37.52;101044.75;16142058;19;129187;-59
2022/09/07 14:32:23;;;;;;;8.88;0.90;;;;;;;25.16;37.57;101040.81;16144843;19;129611;-59
2022/09/07 14:37:47;;;;;;;6.13;1.17;;;;;;;25.15;37.55;101039.13;16140852;19;129461;-59
2022/09/07 14:43:32;;;;;;;9.13;1.23;;;;;;;25.17;37.75;101027.66;16143456;19;130625;-59
2022/09/07 14:48:56;;;;;;;7.03;1.30;;;;;;;25.15;37.78;101035.53;16140812;19;129445;-59
2022/09/07 14:54:33;;;;;;;2.77;0.97;;;;;;;25.16;37.51;101038.00;16143308;19;129299;-59
2022/09/07 14:59:55;;;;;;;5.30;1.45;;;;;;;25.14;37.76;101031.03;16144862;19;129377;-59
2022/09/07 15:05:28;;;;;;;5.43;1.10;;;;;;;25.13;37.66;101021.78;16141753;19;129498;-59
2022/09/07 15:11:01;;;;;;;6.97;1.85;;;;;;;25.11;37.64;101010.03;16133022;19;129646;-59
2022/09/07 15:16:43;;;;;;;8.25;2.15;;;;;;;25.09;37.28;101006.72;16135637;19;129786;-59
2022/09/07 15:22:10;;;;;;;14.52;2.38;;;;;;;25.09;37.41;101012.31;16139105;19;130579;-60
2022/09/07 15:27:34;;;;;;;5.63;1.73;;;;;;;25.08;37.43;101009.78;16143347;19;129412;-60
2022/09/07 15:32:56;;;;;;;64.53;25.58;;;;;;;25.06;37.23;100995.25;16137164;19;129153;-59
2022/09/07 15:38:19;;;;;;;56.97;23.80;;;;;;;25.05;37.01;101000.00;16133676;19;128948;-59
2022/09/07 15:44:01;;;;;;;58.85;23.73;;;;;;;25.04;36.95;100998.34;16135958;19;129831;-59
2022/09/07 15:49:22;;;;;;;54.22;21.52;;;;;;;25.03;36.89;101000.31;16139123;19;130138;-59
2022/09/07 15:54:44;;;;;;;44.38;18.10;;;;;;;25.06;37.11;101007.28;16139887;19;129092;-59
2022/09/07 16:00:07;;;;;;;41.08;16.65;;;;;;;25.06;36.91;101007.28;16132462;19;130362;-60
2022/09/07 16:05:29;;;;;;;36.80;14.43;;;;;;;25.07;36.85;101008.09;16135375;19;129544;-61
2022/09/07 16:10:52;;;;;;;25.30;11.13;;;;;;;25.04;37.09;101003.94;16138696;19;129028;-62
2022/09/07 16:16:15;;;;;;;26.35;10.35;;;;;;;25.04;37.30;101003.94;16134786;19;129762;-62
2022/09/07 16:21:39;;;;;;;20.20;8.77;;;;;;;25.04;37.08;100998.34;16140000;19;131416;-62
2022/09/07 16:27:02;;;;;;;21.17;7.38;;;;;;;25.04;37.19;100987.13;16149088;19;129627;-62
2022/09/07 16:32:23;;;;;;;18.90;6.40;;;;;;;25.01;37.00;100982.13;16151164;19;130689;-62
2022/09/07 16:38:05;;;;;;;21.08;6.50;;;;;;;25.01;37.36;100976.50;16148661;19;130240;-62
2022/09/07 16:43:48;;;;;;;15.45;5.85;;;;;;;25.02;37.25;100972.59;16149077;19;130036;-61
2022/09/07 16:49:10;;;;;;;16.85;4.97;;;;;;;25.01;37.38;100971.78;16150690;19;129300;-62
2022/09/07 16:54:32;;;;;;;15.45;5.20;;;;;;;25.00;36.87;100981.28;16148992;19;130512;-62
2022/09/07 16:59:54;;;;;;;15.82;4.75;;;;;;;24.99;37.32;100973.16;16145302;19;129744;-65
2022/09/07 17:05:15;;;;;;;20.40;4.70;;;;;;;24.97;37.38;100976.25;16168531;19;129545;-63
2022/09/07 17:10:37;;;;;;;21.73;4.45;;;;;;;24.98;37.41;100988.31;16184166;19;128862;-62
2022/09/07 17:16:29;;;;;;;23.83;4.50;;;;;;;24.98;37.85;100988.31;16156593;19;129445;-63
2022/09/07 17:21:52;;;;;;;21.52;3.85;;;;;;;24.98;37.59;100982.72;16153258;19;129585;-63
2022/09/07 17:27:14;;;;;;;22.63;3.60;;;;;;;24.99;37.96;100975.97;16149583;19;128872;-63
2022/09/07 17:32:36;;;;;;;13.77;3.78;;;;;;;24.99;38.07;100978.75;16147071;19;130190;-62
2022/09/07 17:37:58;;;;;;;21.38;3.25;;;;;;;24.98;38.49;100971.53;16145895;19;129465;-63
2022/09/07 17:43:22;;;;;;;16.23;3.22;;;;;;;24.97;38.10;100967.03;16146659;19;129427;-62
2022/09/07 17:49:06;;;;;;;22.38;3.58;;;;;;;24.98;38.26;100963.13;16148458;19;129501;-65
2022/09/07 17:54:28;;;;;;;23.60;3.05;;;;;;;24.97;38.17;100955.84;16145459;19;129545;-65
2022/09/07 17:59:50;;;;;;;22.90;2.90;;;;;;;24.95;38.08;100944.09;16143485;19;129815;-64
2022/09/07 18:05:32;;;;;;;21.30;2.63;;;;;;;24.93;38.10;100946.34;16136178;19;130540;-66
2022/09/07 18:10:54;;;;;;;16.75;2.67;;;;;;;24.91;37.96;100945.78;16122810;19;129247;-63
2022/09/07 18:16:35;;;;;;;17.30;3.35;;;;;;;24.87;38.08;100940.75;16131717;19;129790;-64
2022/09/07 18:21:58;;;;;;;33.35;11.55;;;;;;;24.87;38.49;100943.53;16147092;19;129344;-66
2022/09/07 18:27:20;;;;;;;87.60;42.65;;;;;;;24.91;38.82;100932.66;16144986;19;129227;-64
2022/09/07 18:32:42;;;;;;;41.83;14.05;;;;;;;24.91;38.55;100941.06;16139986;19;129507;-69
2022/09/07 18:38:05;;;;;;;43.08;13.43;;;;;;;24.86;38.53;100936.28;16139777;19;130521;-69
2022/09/07 18:43:29;;;;;;;24.25;7.28;;;;;;;24.85;38.07;100961.75;16141165;19;130494;-69
2022/09/07 18:48:52;;;;;;;16.65;3.90;;;;;;;24.82;38.15;100962.31;16140848;19;129838;-70
2022/09/07 18:54:14;;;;;;;22.00;4.43;;;;;;;24.78;38.01;100958.44;16142300;19;130594;-70
2022/09/07 18:59:36;;;;;;;24.58;3.60;;;;;;;24.76;38.25;100953.13;16138055;19;130681;-69
2022/09/07 19:04:57;;;;;;;19.65;3.45;;;;;;;24.75;37.89;100951.44;16141234;19;130050;-70
2022/09/07 19:10:39;;;;;;;21.00;3.30;;;;;;;24.73;38.00;100950.91;16139962;19;131853;-64
2022/09/07 19:16:08;;;;;;;18.25;4.15;;;;;;;24.74;38.08;100946.97;16138707;19;129375;-65
2022/09/07 19:21:36;;;;;;;19.40;4.13;;;;;;;24.73;38.56;100953.72;16138672;19;129448;-65
2022/09/07 19:26:57;;;;;;;18.05;2.70;;;;;;;24.69;38.14;100938.63;16135394;19;129441;-67
2022/09/07 19:32:21;;;;;;;18.48;4.05;;;;;;;24.69;38.47;100949.81;16137934;19;129404;-63
2022/09/07 19:37:43;;;;;;;26.75;6.10;;;;;;;24.69;39.31;100941.41;16134895;19;130240;-62
2022/09/07 19:43:05;;;;;;;25.63;4.07;;;;;;;24.69;38.74;100935.81;16135682;19;130013;-61
2022/09/07 19:48:30;;;;;;;21.58;3.72;;;;;;;24.69;39.05;100944.22;16124355;19;130338;-65
2022/09/07 19:53:52;;;;;;;15.68;2.90;;;;;;;24.65;39.14;100934.72;16121720;19;130041;-62
2022/09/07 19:59:14;;;;;;;44.80;18.05;;;;;;;24.64;39.16;100927.44;16114210;19;130269;-62
2022/09/07 20:04:36;;;;;;;34.95;10.68;;;;;;;24.64;39.12;100919.06;16126615;19;130716;-61
2022/09/07 20:09:58;;;;;;;33.53;11.57;;;;;;;24.67;38.92;100921.28;16129842;19;130334;-67
2022/09/07 20:15:20;;;;;;;46.17;25.67;;;;;;;24.67;38.86;100922.13;16134499;19;129913;-67
2022/09/07 20:20:42;;;;;;;30.38;15.27;;;;;;;24.70;38.83;100915.13;16136134;19;129680;-67
2022/09/07 20:26:09;;;;;;;34.92;21.17;;;;;;;24.71;38.63;100909.22;16134645;19;129138;-59
2022/09/07 20:31:31;;;;;;;33.65;16.83;;;;;;;24.69;38.57;100897.47;16128108;19;129284;-68
2022/09/07 20:36:53;;;;;;;24.27;11.27;;;;;;;24.69;38.34;100888.28;16130389;19;129588;-68
2022/09/07 20:42:15;;;;;;;12.98;5.80;;;;;;;24.68;38.59;100889.38;16132057;19;129630;-65
2022/09/07 20:47:37;;;;;;;8.30;3.80;;;;;;;24.64;38.56;100882.69;16128975;19;129202;-67
2022/09/07 20:52:58;;;;;;;13.68;4.57;;;;;;;24.62;38.68;100879.34;16126894;19;130728;-70
2022/09/07 20:58:20;;;;;;;8.00;3.10;;;;;;;24.61;38.72;100886.09;16129686;19;129315;-68
2022/09/07 21:03:48;;;;;;;9.07;2.97;;;;;;;24.63;38.55;100878.22;16132998;19;130207;-66
2022/09/07 21:09:10;;;;;;;8.77;2.45;;;;;;;24.64;38.68;100880.75;16135012;19;129367;-62
2022/09/07 21:14:32;;;;;;;11.43;2.40;;;;;;;24.66;38.47;100880.44;16144910;19;130193;-61
2022/09/07 21:19:53;;;;;;;13.13;2.95;;;;;;;24.67;38.89;100887.72;16140207;19;128964;-62
2022/09/07 21:25:15;;;;;;;10.70;2.85;;;;;;;24.67;38.40;100888.56;16144011;19;129264;-61
2022/09/07 21:30:37;;;;;;;8.45;2.40;;;;;;;24.67;38.75;100887.72;16145372;19;131572;-62
2022/09/07 21:36:06;;;;;;;8.73;2.10;;;;;;;24.68;38.64;100886.59;16145438;19;129523;-61
2022/09/07 21:41:29;;;;;;;14.48;2.70;;;;;;;24.67;38.73;100882.13;16141651;19;129189;-61
2022/09/07 21:46:50;;;;;;;10.68;2.20;;;;;;;24.66;38.85;100874.84;16139082;19;129776;-61
2022/09/07 21:52:12;;;;;;;9.32;2.35;;;;;;;24.66;38.63;100874.84;16143525;19;129127;-61
2022/09/07 21:57:34;;;;;;;6.35;2.00;;;;;;;24.64;38.55;100869.56;16140237;19;128999;-61
2022/09/07 22:02:56;;;;;;;6.78;1.88;;;;;;;24.64;39.07;100871.50;16142428;19;129193;-61
2022/09/07 22:08:18;;;;;;;4.82;1.75;;;;;;;24.64;38.70;100877.09;16140511;19;129443;-61
2022/09/07 22:13:40;;;;;;;5.30;2.00;;;;;;;24.63;38.78;100889.41;16142424;19;130127;-61
2022/09/07 22:19:03;;;;;;;6.30;2.08;;;;;;;24.62;39.15;100880.19;16134807;19;129849;-61
2022/09/07 22:24:25;;;;;;;5.88;1.92;;;;;;;24.61;38.83;100874.91;16141070;19;128924;-61
2022/09/07 22:29:46;;;;;;;7.78;1.88;;;;;;;24.61;39.04;100881.31;16140135;19;129562;-61
2022/09/07 22:35:09;;;;;;;6.65;1.67;;;;;;;24.60;38.92;100881.63;16141688;19;130424;-61
2022/09/07 22:40:30;;;;;;;6.03;1.67;;;;;;;24.59;39.09;100869.56;16132603;19;129628;-61
2022/09/07 22:45:52;;;;;;;4.97;1.80;;;;;;;24.57;38.97;100872.69;16135347;19;129784;-61
2022/09/07 22:51:14;;;;;;;6.22;1.75;;;;;;;24.57;38.97;100866.22;16139158;19;129406;-61
2022/09/07 22:56:36;;;;;;;6.63;1.75;;;;;;;24.56;39.05;100859.81;16137822;19;129654;-61
2022/09/07 23:01:57;;;;;;;6.10;1.77;;;;;;;24.56;38.92;100857.00;16138132;19;129649;-61
2022/09/07 23:07:20;;;;;;;3.30;1.52;;;;;;;24.55;39.10;100852.53;16131283;19;131145;-61
2022/09/07 23:12:42;;;;;;;3.85;1.48;;;;;;;24.54;38.88;100845.28;16135949;19;129484;-61
2022/09/07 23:18:04;;;;;;;3.67;1.40;;;;;;;24.55;39.49;100852.53;16134935;19;130240;-60
2022/09/07 23:23:26;;;;;;;4.65;1.88;;;;;;;24.54;39.31;100855.63;16136901;19;129525;-60
2022/09/07 23:28:59;;;;;;;4.75;1.50;;;;;;;24.53;38.86;100852.00;16134705;19;130441;-60
2022/09/07 23:34:20;;;;;;;4.40;1.70;;;;;;;24.52;39.31;100852.28;16133054;19;130698;-60
2022/09/07 23:39:43;;;;;;;5.60;1.40;;;;;;;24.51;38.96;100859.00;16131357;19;129053;-60
2022/09/07 23:45:06;;;;;;;5.45;1.30;;;;;;;24.49;39.37;100853.72;16129927;19;129096;-60
2022/09/07 23:50:28;;;;;;;5.13;1.63;;;;;;;24.47;39.42;100855.97;16134208;19;131271;-61
2022/09/07 23:55:52;;;;;;;3.50;1.40;;;;;;;24.47;39.29;100849.50;16133741;19;129468;-61
